Time;durP1;ratioP1;P1;durP2;ratioP2;P2;SDS_P1;SDS_P2;PMS_P1;PMS_P2;Temp;Humidity;BMP_temperature;BMP_pressure;BME280_temperature;BME280_humidity;BME280_pressure;Samples;Min_cycle;Max_cycle;Signal;HPM_P1;HPM_P2
2023/07/19 00:00:37;;;;;;;0.82;0.82;;;22.80;58.60;;;;;;5136390;27;20205;-68
2023/07/19 00:03:03;;;;;;;0.90;0.80;;;22.80;58.60;;;;;;5135892;27;20184;-69
2023/07/19 00:05:29;;;;;;;1.25;1.08;;;22.80;58.60;;;;;;5135456;27;20259;-69
2023/07/19 00:07:54;;;;;;;0.73;0.68;;;22.80;58.60;;;;;;5136213;27;20678;-68
2023/07/19 00:10:20;;;;;;;1.50;0.90;;;22.80;58.60;;;;;;5135204;27;20312;-68
2023/07/19 00:12:45;;;;;;;1.15;0.88;;;22.80;58.60;;;;;;5136068;27;20184;-67
2023/07/19 00:15:11;;;;;;;1.20;1.08;;;22.80;58.70;;;;;;5135647;27;20578;-67
2023/07/19 00:17:37;;;;;;;1.13;1.00;;;22.80;58.70;;;;;;5135166;27;20180;-67
2023/07/19 00:20:03;;;;;;;1.05;0.90;;;22.80;58.70;;;;;;5135453;27;20169;-68
2023/07/19 00:22:28;;;;;;;1.05;0.98;;;22.80;58.70;;;;;;5135928;27;20184;-67
2023/07/19 00:24:54;;;;;;;1.10;1.00;;;22.80;58.70;;;;;;5135283;27;20623;-67
2023/07/19 00:27:19;;;;;;;1.05;0.88;;;22.80;58.70;;;;;;5135506;27;20576;-68
2023/07/19 00:29:45;;;;;;;1.17;1.00;;;22.80;58.70;;;;;;5135835;27;20702;-69
2023/07/19 00:32:10;;;;;;;1.10;1.00;;;22.80;58.70;;;;;;5133953;27;20548;-69
2023/07/19 00:34:36;;;;;;;1.13;0.90;;;22.80;59.30;;;;;;5135586;27;20172;-69
2023/07/19 00:37:01;;;;;;;1.27;0.80;;;22.80;58.70;;;;;;5135414;27;20255;-68
2023/07/19 00:39:27;;;;;;;1.35;0.80;;;22.70;58.60;;;;;;5134803;27;20613;-68
2023/07/19 00:41:53;;;;;;;0.77;0.77;;;22.80;58.70;;;;;;5135651;27;20176;-68
2023/07/19 00:44:18;;;;;;;0.90;0.90;;;22.70;59.30;;;;;;5135143;27;20169;-68
2023/07/19 00:46:44;;;;;;;0.70;0.70;;;22.70;58.70;;;;;;5134797;27;20180;-67
2023/07/19 00:49:10;;;;;;;0.82;0.80;;;22.70;58.70;;;;;;5099904;27;20173;-67
2023/07/19 00:51:36;;;;;;;1.33;0.70;;;22.70;58.70;;;;;;5117058;27;20180;-67
2023/07/19 00:54:02;;;;;;;0.88;0.75;;;22.70;58.70;;;;;;5099186;27;20183;-67
2023/07/19 00:56:27;;;;;;;0.80;0.80;;;22.70;58.70;;;;;;5135389;27;20172;-67
2023/07/19 00:58:53;;;;;;;1.75;1.13;;;22.70;58.80;;;;;;5116927;27;20716;-68
2023/07/19 01:01:22;;;;;;;1.00;0.98;;;22.70;58.80;;;;;;5098920;27;20200;-68
2023/07/19 01:03:48;;;;;;;1.00;0.90;;;22.70;58.80;;;;;;5116540;27;20175;-69
2023/07/19 01:06:13;;;;;;;1.02;0.93;;;22.70;58.80;;;;;;5134791;27;20172;-68
2023/07/19 01:08:39;;;;;;;0.88;0.88;;;22.70;58.80;;;;;;5134218;27;20223;-68
2023/07/19 01:11:04;;;;;;;1.00;0.90;;;22.70;58.80;;;;;;5134789;27;20203;-67
2023/07/19 01:13:30;;;;;;;0.65;0.65;;;22.70;58.80;;;;;;5134745;27;20177;-67
2023/07/19 01:15:56;;;;;;;1.13;1.00;;;22.70;58.80;;;;;;5133967;27;20178;-67
2023/07/19 01:18:21;;;;;;;1.27;1.20;;;22.70;58.80;;;;;;5134846;27;20200;-67
2023/07/19 01:20:47;;;;;;;1.00;0.90;;;22.70;58.90;;;;;;5134294;27;20164;-67
2023/07/19 01:23:12;;;;;;;0.93;0.93;;;22.60;58.80;;;;;;5134619;27;20567;-67
2023/07/19 01:25:38;;;;;;;1.13;1.13;;;22.70;58.90;;;;;;5134634;27;20247;-67
2023/07/19 01:28:04;;;;;;;1.13;1.00;;;22.60;58.80;;;;;;5133633;27;20211;-67
2023/07/19 01:30:29;;;;;;;0.90;0.90;;;22.60;58.90;;;;;;5134671;27;20586;-67
2023/07/19 01:32:55;;;;;;;0.88;0.88;;;22.60;58.90;;;;;;5134493;27;20183;-68
2023/07/19 01:35:20;;;;;;;2.47;0.80;;;22.60;58.90;;;;;;5133334;27;20172;-68
2023/07/19 01:37:46;;;;;;;0.70;0.70;;;22.60;58.90;;;;;;5134323;27;20275;-67
2023/07/19 01:40:12;;;;;;;4.57;1.00;;;22.60;58.90;;;;;;5133933;27;20231;-67
2023/07/19 01:42:38;;;;;;;1.00;0.90;;;22.60;58.90;;;;;;5133593;27;20742;-68
2023/07/19 01:45:04;;;;;;;1.92;1.10;;;22.60;58.90;;;;;;5134189;27;20168;-68
2023/07/19 01:47:29;;;;;;;0.90;0.80;;;22.60;59.00;;;;;;5134309;27;20211;-67
2023/07/19 01:49:55;;;;;;;0.98;0.90;;;22.60;58.90;;;;;;5133614;27;20164;-67
2023/07/19 01:52:21;;;;;;;0.85;0.85;;;22.60;59.00;;;;;;5134124;27;20267;-67
2023/07/19 01:54:46;;;;;;;0.73;0.70;;;22.60;59.00;;;;;;5134217;27;20185;-67
2023/07/19 01:57:12;;;;;;;0.85;0.85;;;22.60;59.00;;;;;;5133128;27;20217;-67
2023/07/19 01:59:37;;;;;;;1.17;0.90;;;22.60;59.00;;;;;;5133918;27;20175;-68
2023/07/19 02:02:03;;;;;;;0.80;0.80;;;22.60;59.00;;;;;;5133723;27;20177;-69
2023/07/19 02:04:29;;;;;;;2.25;1.00;;;22.60;59.10;;;;;;5133350;27;20196;-69
2023/07/19 02:06:55;;;;;;;1.20;1.10;;;22.50;59.00;;;;;;5133851;27;20320;-69
2023/07/19 02:09:21;;;;;;;1.25;1.15;;;22.50;59.00;;;;;;5115928;28;20176;-68
2023/07/19 02:11:46;;;;;;;1.05;0.95;;;22.60;59.00;;;;;;5133404;27;20645;-67
2023/07/19 02:14:12;;;;;;;1.45;0.80;;;22.50;59.70;;;;;;5133679;27;20673;-67
2023/07/19 02:16:38;;;;;;;0.80;0.80;;;22.50;59.00;;;;;;5133824;27;20639;-66
2023/07/19 02:19:05;;;;;;;1.67;1.35;;;22.50;59.00;;;;;;5132763;27;20573;-67
2023/07/19 02:21:30;;;;;;;1.30;0.82;;;22.50;59.80;;;;;;5134035;28;20169;-67
2023/07/19 02:23:57;;;;;;;0.90;0.90;;;22.50;59.10;;;;;;5133721;28;20168;-67
2023/07/19 02:26:23;;;;;;;1.25;0.90;;;22.50;59.10;;;;;;5133349;28;20172;-67
2023/07/19 02:28:48;;;;;;;1.08;0.98;;;22.50;59.10;;;;;;5133798;28;20223;-67
2023/07/19 02:31:14;;;;;;;0.82;0.82;;;22.50;59.10;;;;;;5132746;28;20622;-68
2023/07/19 02:33:39;;;;;;;0.88;0.88;;;22.50;59.20;;;;;;5133843;28;20179;-68
2023/07/19 02:36:05;;;;;;;0.73;0.73;;;22.50;59.10;;;;;;5133604;28;20631;-67
2023/07/19 02:38:31;;;;;;;0.93;0.90;;;22.50;59.10;;;;;;5132836;28;20172;-67
2023/07/19 02:40:58;;;;;;;1.00;0.90;;;22.50;59.10;;;;;;5133432;28;20529;-67
2023/07/19 02:43:24;;;;;;;0.90;0.90;;;22.50;59.10;;;;;;5133870;28;20173;-68
2023/07/19 02:45:51;;;;;;;0.73;0.73;;;22.50;59.20;;;;;;5132861;28;20631;-67
2023/07/19 02:48:16;;;;;;;0.98;0.90;;;22.50;59.20;;;;;;5133421;28;20250;-67
2023/07/19 02:50:45;;;;;;;1.00;0.80;;;22.40;59.10;;;;;;5133523;28;20164;-67
2023/07/19 02:53:11;;;;;;;0.77;0.77;;;22.40;59.20;;;;;;5132594;27;20279;-67
2023/07/19 02:55:37;;;;;;;1.00;0.95;;;22.40;59.20;;;;;;5137356;27;20655;-68
2023/07/19 02:58:02;;;;;;;1.00;1.00;;;22.40;59.20;;;;;;5137136;27;20168;-68
2023/07/19 03:00:28;;;;;;;1.42;1.08;;;22.40;59.20;;;;;;5136712;27;20168;-68
2023/07/19 03:02:53;;;;;;;1.35;0.90;;;22.40;59.20;;;;;;5137316;27;20222;-69
2023/07/19 03:05:20;;;;;;;1.40;0.70;;;22.40;59.20;;;;;;5137186;27;20199;-70
2023/07/19 03:07:45;;;;;;;1.08;1.05;;;22.40;59.20;;;;;;5136572;27;20208;-69
2023/07/19 03:10:11;;;;;;;1.20;1.10;;;22.40;59.20;;;;;;5136968;27;20501;-69
2023/07/19 03:12:37;;;;;;;0.80;0.80;;;22.40;59.20;;;;;;5137233;27;20180;-68
2023/07/19 03:15:05;;;;;;;0.98;0.90;;;22.40;59.20;;;;;;5136076;27;20168;-68
2023/07/19 03:17:31;;;;;;;0.80;0.80;;;22.40;59.20;;;;;;5137033;27;20191;-68
2023/07/19 03:19:57;;;;;;;1.17;0.80;;;22.40;59.20;;;;;;5137036;27;20506;-68
2023/07/19 03:22:22;;;;;;;1.13;0.95;;;22.40;59.90;;;;;;5136461;27;20168;-68
2023/07/19 03:24:48;;;;;;;1.02;0.70;;;22.40;59.20;;;;;;5137136;27;20173;-68
2023/07/19 03:27:19;;;;;;;0.70;0.70;;;22.30;59.20;;;;;;5136652;27;20208;-68
2023/07/19 03:29:45;;;;;;;0.90;0.90;;;22.30;59.20;;;;;;5136983;27;20198;-68
2023/07/19 03:32:13;;;;;;;0.80;0.80;;;22.40;59.20;;;;;;5136543;27;20199;-69
2023/07/19 03:34:42;;;;;;;1.65;1.00;;;22.30;59.20;;;;;;5136303;27;20203;-68
2023/07/19 03:37:07;;;;;;;0.95;0.95;;;22.30;59.90;;;;;;5136366;27;20691;-69
2023/07/19 03:39:33;;;;;;;0.70;0.70;;;22.30;59.20;;;;;;5118222;27;20229;-68
2023/07/19 03:41:58;;;;;;;1.00;1.00;;;22.30;59.20;;;;;;5135792;27;20560;-68
2023/07/19 03:44:25;;;;;;;1.20;1.00;;;22.30;59.20;;;;;;5136632;27;20164;-68
2023/07/19 03:46:50;;;;;;;0.90;0.70;;;22.30;59.20;;;;;;5136595;27;20177;-68
2023/07/19 03:49:16;;;;;;;0.95;0.85;;;22.30;59.90;;;;;;5135594;27;20180;-68
2023/07/19 03:51:42;;;;;;;1.05;1.05;;;22.30;59.30;;;;;;5136568;27;20172;-67
2023/07/19 03:54:08;;;;;;;0.80;0.80;;;22.30;59.20;;;;;;5136075;27;20684;-66
2023/07/19 03:56:33;;;;;;;0.90;0.90;;;22.30;59.20;;;;;;5135705;27;20176;-67
2023/07/19 03:58:59;;;;;;;0.68;0.65;;;22.30;59.30;;;;;;5135989;27;20206;-68
2023/07/19 04:01:24;;;;;;;0.80;0.80;;;22.30;59.20;;;;;;5136190;27;20267;-68
2023/07/19 04:03:50;;;;;;;1.02;1.02;;;22.30;59.30;;;;;;5135624;27;20251;-68
2023/07/19 04:06:16;;;;;;;1.35;1.00;;;22.30;59.30;;;;;;5134792;27;20187;-68
2023/07/19 04:08:41;;;;;;;1.25;1.02;;;22.30;59.30;;;;;;5136241;27;20682;-68
2023/07/19 04:11:07;;;;;;;1.00;1.00;;;22.30;59.20;;;;;;5135084;27;20573;-68
2023/07/19 04:13:32;;;;;;;1.50;0.80;;;22.30;59.30;;;;;;5136052;27;20514;-68
2023/07/19 04:15:58;;;;;;;0.80;0.80;;;22.30;59.20;;;;;;5135919;27;20691;-68
2023/07/19 04:18:24;;;;;;;1.90;0.90;;;22.20;59.20;;;;;;5135391;27;20180;-67
2023/07/19 04:20:54;;;;;;;0.98;0.80;;;22.30;59.20;;;;;;5135924;27;20168;-67
2023/07/19 04:23:20;;;;;;;1.10;1.00;;;22.30;59.30;;;;;;5135711;27;20184;-67
2023/07/19 04:25:45;;;;;;;0.85;0.85;;;22.30;59.30;;;;;;5135423;27;20222;-68
2023/07/19 04:28:11;;;;;;;1.10;0.88;;;22.30;59.30;;;;;;5135591;27;20622;-68
2023/07/19 04:30:37;;;;;;;1.08;1.00;;;22.30;59.30;;;;;;5135233;27;20250;-68
2023/07/19 04:33:04;;;;;;;1.00;1.00;;;22.30;59.40;;;;;;5135448;27;20172;-68
2023/07/19 04:35:29;;;;;;;1.23;0.98;;;22.30;59.40;;;;;;5135553;27;20173;-68
2023/07/19 04:37:55;;;;;;;1.45;0.95;;;22.20;59.30;;;;;;5135075;27;20180;-68
2023/07/19 04:40:20;;;;;;;1.63;0.95;;;22.20;59.40;;;;;;5135126;27;20231;-68
2023/07/19 04:42:46;;;;;;;1.35;1.25;;;22.30;59.30;;;;;;5135611;27;20187;-68
2023/07/19 04:45:13;;;;;;;1.70;1.00;;;22.20;59.30;;;;;;5134643;27;20172;-67
2023/07/19 04:47:38;;;;;;;1.20;1.10;;;22.30;59.40;;;;;;5135254;27;20204;-68
2023/07/19 04:50:07;;;;;;;0.93;0.90;;;22.30;60.00;;;;;;5135143;27;20190;-68
2023/07/19 04:52:32;;;;;;;0.88;0.88;;;22.30;59.40;;;;;;5134500;27;20184;-67
2023/07/19 04:54:58;;;;;;;1.40;1.30;;;22.20;59.40;;;;;;5135192;27;20173;-67
2023/07/19 04:57:23;;;;;;;1.02;0.77;;;22.30;59.40;;;;;;5135205;27;20590;-67
2023/07/19 04:59:49;;;;;;;1.13;1.02;;;22.30;59.40;;;;;;5134436;27;20179;-68
2023/07/19 05:02:15;;;;;;;1.42;1.23;;;22.30;59.40;;;;;;5135071;27;20508;-68
2023/07/19 05:04:40;;;;;;;1.10;1.00;;;22.30;59.40;;;;;;5135082;27;20642;-69
2023/07/19 05:07:06;;;;;;;1.15;1.05;;;22.30;59.40;;;;;;5134052;27;20271;-68
2023/07/19 05:09:31;;;;;;;1.48;1.17;;;22.30;59.40;;;;;;5134859;27;20168;-68
2023/07/19 05:11:57;;;;;;;1.38;1.00;;;22.30;59.40;;;;;;5134829;27;20186;-67
2023/07/19 05:14:23;;;;;;;1.45;1.15;;;22.30;59.40;;;;;;5134334;27;20168;-67
2023/07/19 05:16:49;;;;;;;1.58;1.10;;;22.30;59.40;;;;;;5134499;27;20187;-67
2023/07/19 05:19:15;;;;;;;1.35;1.10;;;22.30;59.30;;;;;;5134501;27;20468;-67
2023/07/19 05:21:40;;;;;;;1.27;1.17;;;22.20;59.90;;;;;;5134230;27;20503;-68
2023/07/19 05:24:06;;;;;;;1.88;1.17;;;22.30;59.40;;;;;;5134618;27;20191;-68
2023/07/19 05:26:31;;;;;;;2.08;1.30;;;22.30;59.30;;;;;;5134466;27;20226;-68
2023/07/19 05:28:57;;;;;;;2.13;1.38;;;22.20;59.30;;;;;;5133361;27;20242;-69
2023/07/19 05:31:22;;;;;;;1.60;1.00;;;22.30;59.30;;;;;;5134624;27;20175;-68
2023/07/19 05:33:48;;;;;;;1.88;1.10;;;22.30;59.30;;;;;;5134706;27;20177;-69
2023/07/19 05:36:13;;;;;;;1.88;1.23;;;22.30;59.40;;;;;;5133543;27;20204;-69
2023/07/19 05:38:39;;;;;;;1.08;0.95;;;22.20;59.40;;;;;;5134396;27;20176;-68
2023/07/19 05:41:06;;;;;;;1.77;1.30;;;22.20;59.30;;;;;;5133477;27;20180;-69
2023/07/19 05:43:32;;;;;;;1.45;1.35;;;22.30;59.40;;;;;;5134166;27;20176;-68
2023/07/19 05:46:06;;;;;;;1.35;1.25;;;22.30;59.40;;;;;;5134179;27;20187;-68
2023/07/19 05:48:32;;;;;;;1.00;1.00;;;22.30;60.00;;;;;;5133410;27;20665;-68
2023/07/19 05:50:59;;;;;;;1.48;1.38;;;22.30;59.30;;;;;;5134086;27;20172;-67
2023/07/19 05:53:24;;;;;;;2.80;1.15;;;22.30;59.30;;;;;;5134047;27;20176;-67
2023/07/19 05:55:52;;;;;;;1.30;1.13;;;22.30;59.20;;;;;;5133585;27;20172;-67
2023/07/19 05:58:18;;;;;;;1.85;1.30;;;22.30;59.20;;;;;;5133723;27;20260;-68
2023/07/19 06:00:43;;;;;;;1.10;1.00;;;22.30;59.20;;;;;;5134155;27;20216;-70
2023/07/19 06:03:09;;;;;;;1.25;1.15;;;22.30;59.20;;;;;;5133015;27;20203;-70
2023/07/19 06:05:34;;;;;;;1.15;1.05;;;22.30;59.20;;;;;;5133982;27;20178;-71
2023/07/19 06:08:00;;;;;;;1.30;1.20;;;22.30;59.30;;;;;;5115449;28;20563;-69
2023/07/19 06:10:25;;;;;;;1.67;1.00;;;22.30;59.30;;;;;;5133047;27;20160;-69
2023/07/19 06:12:51;;;;;;;1.23;1.13;;;22.30;59.30;;;;;;5133922;27;20174;-68
2023/07/19 06:15:17;;;;;;;1.13;1.02;;;22.30;59.90;;;;;;5133708;27;20251;-68
2023/07/19 06:17:42;;;;;;;1.40;1.30;;;22.40;59.30;;;;;;5133361;27;20208;-68
2023/07/19 06:20:12;;;;;;;1.55;1.45;;;22.40;59.30;;;;;;5133566;27;20168;-68
2023/07/19 06:22:38;;;;;;;2.03;1.20;;;22.40;59.30;;;;;;5133648;28;20229;-68
2023/07/19 06:25:04;;;;;;;1.65;1.10;;;22.40;59.30;;;;;;5132953;28;20172;-68
2023/07/19 06:27:29;;;;;;;1.40;1.30;;;22.40;59.30;;;;;;5133566;28;20235;-68
2023/07/19 06:29:55;;;;;;;1.55;1.00;;;22.40;59.30;;;;;;5136352;27;20168;-68
2023/07/19 06:32:20;;;;;;;1.38;1.27;;;22.40;59.20;;;;;;5137307;27;20501;-68
2023/07/19 06:34:47;;;;;;;1.13;1.02;;;22.40;59.20;;;;;;5138051;27;20545;-69
2023/07/19 06:37:12;;;;;;;1.50;1.00;;;22.30;59.10;;;;;;5136775;27;20646;-68
2023/07/19 06:39:38;;;;;;;1.80;1.25;;;22.40;59.10;;;;;;5137590;27;20311;-68
2023/07/19 06:42:04;;;;;;;1.35;1.25;;;22.50;59.10;;;;;;5137685;27;20224;-68
2023/07/19 06:44:30;;;;;;;1.23;1.08;;;22.40;59.10;;;;;;5137244;27;20854;-67
2023/07/19 06:46:55;;;;;;;2.15;1.05;;;22.40;59.10;;;;;;5137432;27;20646;-68
2023/07/19 06:49:21;;;;;;;1.40;1.30;;;22.50;59.10;;;;;;5137601;27;20649;-67
2023/07/19 06:51:48;;;;;;;1.10;1.00;;;22.50;59.00;;;;;;5136868;27;20172;-67
2023/07/19 06:54:13;;;;;;;1.25;1.00;;;22.40;59.10;;;;;;5137462;27;20190;-67
2023/07/19 06:56:39;;;;;;;1.92;1.15;;;22.40;59.10;;;;;;5137684;27;20255;-68
2023/07/19 06:59:04;;;;;;;1.52;1.40;;;22.50;59.10;;;;;;5136748;27;20172;-69
2023/07/19 07:01:30;;;;;;;1.10;1.00;;;22.50;59.10;;;;;;5137482;27;20184;-70
2023/07/19 07:03:56;;;;;;;1.50;1.30;;;22.60;59.00;;;;;;5137274;27;20169;-69
2023/07/19 07:06:22;;;;;;;1.35;1.25;;;22.50;59.00;;;;;;5136568;27;20168;-69
2023/07/19 07:08:47;;;;;;;2.25;1.30;;;22.60;59.00;;;;;;5137457;27;20230;-68
2023/07/19 07:11:13;;;;;;;1.55;1.10;;;22.50;58.90;;;;;;5118694;27;20523;-67
2023/07/19 07:13:39;;;;;;;2.55;0.98;;;22.60;59.00;;;;;;5136352;27;20180;-67
2023/07/19 07:16:04;;;;;;;2.10;1.15;;;22.50;58.90;;;;;;5136928;27;20255;-67
2023/07/19 07:18:30;;;;;;;1.77;1.33;;;22.50;59.00;;;;;;5137159;27;20173;-67
2023/07/19 07:20:55;;;;;;;1.20;1.00;;;22.50;59.00;;;;;;5135975;27;20195;-67
2023/07/19 07:23:21;;;;;;;0.90;0.90;;;22.50;59.00;;;;;;5136965;27;20623;-67
2023/07/19 07:25:54;;;;;;;1.08;1.00;;;22.50;59.60;;;;;;5137034;27;20183;-67
2023/07/19 07:28:19;;;;;;;1.00;0.90;;;22.50;59.10;;;;;;5135931;27;20282;-67
2023/07/19 07:30:45;;;;;;;1.23;1.13;;;22.50;59.10;;;;;;5136966;27;20631;-67
2023/07/19 07:33:10;;;;;;;1.27;1.17;;;22.50;59.20;;;;;;5136562;27;20176;-67
2023/07/19 07:35:36;;;;;;;1.55;1.10;;;22.50;59.10;;;;;;5136015;27;20165;-68
2023/07/19 07:38:01;;;;;;;1.33;1.23;;;22.50;59.10;;;;;;5136676;27;20196;-68
2023/07/19 07:40:27;;;;;;;1.27;1.00;;;22.50;59.10;;;;;;5135958;27;20667;-68
2023/07/19 07:42:53;;;;;;;1.55;1.27;;;22.50;59.10;;;;;;5136360;27;20196;-67
2023/07/19 07:45:18;;;;;;;1.55;1.27;;;22.50;59.10;;;;;;5136379;27;20180;-68
2023/07/19 07:47:44;;;;;;;1.23;1.10;;;22.50;59.10;;;;;;5135710;27;20680;-67
2023/07/19 07:50:10;;;;;;;1.30;1.20;;;22.50;59.10;;;;;;5136352;27;20169;-67
2023/07/19 07:52:35;;;;;;;1.38;1.17;;;22.60;59.10;;;;;;5136371;27;20168;-66
2023/07/19 07:55:01;;;;;;;1.95;1.30;;;22.60;59.10;;;;;;5135832;27;20251;-66
2023/07/19 07:57:30;;;;;;;1.38;1.13;;;22.60;59.10;;;;;;5136555;27;20619;-67
2023/07/19 07:59:58;;;;;;;2.88;1.63;;;22.60;59.10;;;;;;5136213;27;20638;-68
2023/07/19 08:02:24;;;;;;;1.20;1.10;;;22.60;59.10;;;;;;5135730;27;20192;-69
2023/07/19 08:04:52;;;;;;;1.10;1.00;;;22.60;59.10;;;;;;5136237;27;20627;-69
2023/07/19 08:07:17;;;;;;;1.40;1.23;;;22.60;59.20;;;;;;5135836;27;20201;-68
2023/07/19 08:09:43;;;;;;;1.38;1.20;;;22.60;59.70;;;;;;5135246;27;20205;-68
2023/07/19 08:12:08;;;;;;;1.50;1.40;;;22.70;59.10;;;;;;5135873;27;20244;-67
2023/07/19 08:14:35;;;;;;;1.25;1.15;;;22.60;59.00;;;;;;5136042;27;20551;-67
2023/07/19 08:17:01;;;;;;;1.15;1.05;;;22.60;59.10;;;;;;5134953;27;20646;-67
2023/07/19 08:19:26;;;;;;;1.63;1.20;;;22.70;59.10;;;;;;5135890;27;20176;-67
2023/07/19 08:21:52;;;;;;;1.50;1.00;;;22.70;58.90;;;;;;5136142;27;20168;-67
2023/07/19 08:24:18;;;;;;;1.30;1.17;;;22.70;58.90;;;;;;5134997;27;20534;-67
2023/07/19 08:26:43;;;;;;;1.55;1.10;;;22.70;58.90;;;;;;5135995;27;20531;-67
2023/07/19 08:29:10;;;;;;;1.13;1.10;;;22.80;59.50;;;;;;5135462;27;20212;-67
2023/07/19 08:31:36;;;;;;;1.33;1.17;;;22.80;58.80;;;;;;5134925;27;20233;-68
2023/07/19 08:34:01;;;;;;;1.75;1.10;;;22.80;58.80;;;;;;5135178;27;20180;-68
2023/07/19 08:36:27;;;;;;;1.05;0.95;;;22.90;58.80;;;;;;5135719;27;20172;-68
2023/07/19 08:38:52;;;;;;;1.27;1.17;;;22.90;58.70;;;;;;5134876;27;20613;-68
2023/07/19 08:41:21;;;;;;;1.00;0.95;;;22.90;59.20;;;;;;5135393;27;20171;-67
2023/07/19 08:43:46;;;;;;;1.48;1.27;;;22.90;58.60;;;;;;5117266;27;20195;-67
2023/07/19 08:46:15;;;;;;;1.40;1.10;;;22.90;58.70;;;;;;5135010;27;20172;-67
2023/07/19 08:48:43;;;;;;;1.42;0.88;;;23.00;58.60;;;;;;5135282;27;20216;-67
2023/07/19 08:51:09;;;;;;;1.20;1.10;;;23.00;58.50;;;;;;5115824;27;20187;-67
2023/07/19 08:53:35;;;;;;;1.13;1.10;;;23.10;58.50;;;;;;5135061;27;20168;-66
2023/07/19 08:56:00;;;;;;;1.52;1.20;;;23.10;58.40;;;;;;5116880;27;20168;-67
2023/07/19 08:58:26;;;;;;;2.03;1.20;;;23.20;58.40;;;;;;5116380;27;20180;-67
2023/07/19 09:00:51;;;;;;;1.33;1.23;;;23.10;58.40;;;;;;5117001;27;20171;-68
2023/07/19 09:03:17;;;;;;;1.58;1.35;;;23.20;58.40;;;;;;5134676;27;20172;-69
2023/07/19 09:05:46;;;;;;;1.65;1.48;;;23.10;58.40;;;;;;5134529;27;20646;-69
2023/07/19 09:08:12;;;;;;;1.40;1.30;;;23.10;58.50;;;;;;5134691;27;20220;-68
2023/07/19 09:10:38;;;;;;;1.13;1.10;;;23.00;58.60;;;;;;5135029;27;20172;-69
2023/07/19 09:13:06;;;;;;;1.00;1.00;;;23.00;58.80;;;;;;5133938;27;20194;-67
2023/07/19 09:15:38;;;;;;;1.70;1.05;;;23.00;58.80;;;;;;5134921;27;20608;-67
2023/07/19 09:18:04;;;;;;;0.82;0.82;;;23.00;58.80;;;;;;5134503;27;20215;-67
2023/07/19 09:20:30;;;;;;;1.33;1.10;;;22.90;58.80;;;;;;5134046;27;20762;-67
2023/07/19 09:22:56;;;;;;;1.30;1.20;;;22.90;58.90;;;;;;5134821;27;20176;-67
2023/07/19 09:25:22;;;;;;;1.40;1.30;;;22.90;59.00;;;;;;5135167;27;20174;-67
2023/07/19 09:27:47;;;;;;;1.25;0.95;;;23.00;59.00;;;;;;5133865;27;20291;-67
2023/07/19 09:30:13;;;;;;;1.00;0.90;;;23.00;59.00;;;;;;5134155;27;20164;-67
2023/07/19 09:32:39;;;;;;;1.40;1.08;;;23.00;58.90;;;;;;5134749;27;20203;-68
2023/07/19 09:35:06;;;;;;;1.67;1.25;;;23.00;58.90;;;;;;5133670;27;20199;-68
2023/07/19 09:37:31;;;;;;;1.20;1.10;;;23.10;58.80;;;;;;5134748;27;20176;-68
2023/07/19 09:39:58;;;;;;;1.13;1.02;;;23.10;58.70;;;;;;5133840;27;20714;-68
2023/07/19 09:42:24;;;;;;;1.67;1.58;;;23.20;58.50;;;;;;5115610;27;20579;-67
2023/07/19 09:44:50;;;;;;;1.42;0.98;;;23.30;58.50;;;;;;5115922;27;20183;-68
2023/07/19 09:47:16;;;;;;;1.60;1.30;;;23.20;58.50;;;;;;5133371;27;20207;-67
2023/07/19 09:49:45;;;;;;;1.52;1.20;;;23.20;58.50;;;;;;5134272;27;20172;-67
2023/07/19 09:52:17;;;;;;;1.40;1.30;;;23.20;58.80;;;;;;5116252;27;20172;-67
2023/07/19 09:54:43;;;;;;;1.23;1.10;;;23.00;58.90;;;;;;5133388;27;20176;-66
2023/07/19 09:57:09;;;;;;;2.33;1.30;;;23.00;59.00;;;;;;5133810;27;20206;-67
2023/07/19 09:59:43;;;;;;;1.30;1.10;;;22.90;59.10;;;;;;5115835;27;20164;-68
2023/07/19 10:02:10;;;;;;;2.25;1.40;;;23.00;59.20;;;;;;5116068;27;20568;-69
2023/07/19 10:04:39;;;;;;;1.38;1.23;;;23.00;59.20;;;;;;5115912;27;20259;-69
2023/07/19 10:07:12;;;;;;;1.27;1.17;;;23.00;59.20;;;;;;5133699;27;20263;-68
2023/07/19 10:09:41;;;;;;;1.48;1.10;;;23.00;59.20;;;;;;5133268;27;20182;-68
2023/07/19 10:12:11;;;;;;;0.90;0.90;;;23.00;59.20;;;;;;5133784;27;20168;-68
2023/07/19 10:14:36;;;;;;;1.38;1.20;;;23.00;59.10;;;;;;5134014;27;20168;-67
2023/07/19 10:17:03;;;;;;;1.40;1.30;;;23.10;58.90;;;;;;5132762;27;20172;-67
2023/07/19 10:19:29;;;;;;;1.27;1.17;;;23.20;58.80;;;;;;5133859;27;20693;-67
2023/07/19 10:22:04;;;;;;;1.23;1.13;;;23.30;58.70;;;;;;5133838;27;20160;-67
2023/07/19 10:24:36;;;;;;;1.42;1.02;;;23.30;58.50;;;;;;5133239;28;20180;-67
2023/07/19 10:27:06;;;;;;;1.50;1.40;;;23.30;58.60;;;;;;5133400;28;20497;-67
2023/07/19 10:29:44;;;;;;;1.77;1.17;;;23.20;58.70;;;;;;5115051;28;20169;-67
2023/07/19 10:32:10;;;;;;;1.40;1.30;;;23.10;58.80;;;;;;5133329;28;20182;-68
2023/07/19 10:34:36;;;;;;;1.83;1.20;;;23.10;58.90;;;;;;5133672;28;20172;-68
2023/07/19 10:37:06;;;;;;;1.80;1.33;;;23.00;59.00;;;;;;5132624;28;20513;-68
2023/07/19 10:39:32;;;;;;;1.15;1.00;;;23.00;59.10;;;;;;5133576;28;20236;-67
2023/07/19 10:41:58;;;;;;;1.05;0.95;;;23.00;59.20;;;;;;5133516;28;20203;-67
2023/07/19 10:44:26;;;;;;;1.27;1.05;;;23.00;59.30;;;;;;5132801;28;20229;-67
2023/07/19 10:46:54;;;;;;;1.75;1.35;;;22.90;59.30;;;;;;5133588;28;20254;-68
2023/07/19 10:49:26;;;;;;;1.63;1.20;;;22.90;59.40;;;;;;5133279;28;20183;-67
2023/07/19 10:51:55;;;;;;;1.10;1.00;;;22.90;59.60;;;;;;5132982;28;20570;-67
2023/07/19 10:54:20;;;;;;;1.38;1.17;;;22.90;59.50;;;;;;5133637;28;20183;-67
2023/07/19 10:56:48;;;;;;;1.50;1.40;;;23.00;59.40;;;;;;5133616;28;20172;-67
2023/07/19 10:59:14;;;;;;;1.85;1.30;;;23.10;59.20;;;;;;5132457;28;20182;-68
2023/07/19 11:01:39;;;;;;;1.30;1.20;;;23.20;59.20;;;;;;5133352;28;20168;-69
2023/07/19 11:04:07;;;;;;;1.58;1.17;;;23.20;59.00;;;;;;5133336;28;20173;-68
2023/07/19 11:06:33;;;;;;;1.63;1.25;;;23.30;59.00;;;;;;5132922;28;20253;-70
2023/07/19 11:09:08;;;;;;;1.50;1.40;;;23.30;58.90;;;;;;5133034;28;20630;-68
2023/07/19 11:11:35;;;;;;;1.55;1.45;;;23.30;58.90;;;;;;5132704;28;20202;-68
2023/07/19 11:14:01;;;;;;;1.05;1.02;;;23.40;58.90;;;;;;5114938;27;20623;-67
2023/07/19 11:16:27;;;;;;;1.40;1.30;;;23.40;58.80;;;;;;5136560;27;20174;-67
2023/07/19 11:18:53;;;;;;;1.25;1.13;;;23.40;58.80;;;;;;5136651;27;20180;-67
2023/07/19 11:21:28;;;;;;;1.40;1.30;;;23.50;59.40;;;;;;5136933;27;20191;-68
2023/07/19 11:23:53;;;;;;;1.10;1.10;;;23.50;58.80;;;;;;5137279;27;20191;-68
2023/07/19 11:26:19;;;;;;;1.25;1.15;;;23.50;58.80;;;;;;5136107;27;20566;-67
2023/07/19 11:28:46;;;;;;;1.30;1.20;;;23.50;58.70;;;;;;5118495;27;20196;-67
2023/07/19 11:31:33;;;;;;;1.30;1.10;;;23.60;58.80;;;;;;5136927;27;20214;-68
2023/07/19 11:34:09;;;;;;;1.23;1.13;;;23.60;58.70;;;;;;5136012;27;20561;-68
2023/07/19 11:36:39;;;;;;;1.30;1.20;;;23.60;58.70;;;;;;5136989;27;20534;-68
2023/07/19 11:39:04;;;;;;;1.35;1.25;;;23.60;58.60;;;;;;5136433;27;20220;-68
2023/07/19 11:41:31;;;;;;;1.30;1.20;;;23.60;58.60;;;;;;5117515;27;20668;-68
2023/07/19 11:43:56;;;;;;;1.52;1.20;;;23.70;58.60;;;;;;5136565;27;20247;-68
2023/07/19 11:46:22;;;;;;;1.42;1.30;;;23.70;58.60;;;;;;5136727;27;20658;-68
2023/07/19 11:48:49;;;;;;;2.05;1.50;;;23.70;58.60;;;;;;5135874;27;20235;-67
2023/07/19 11:51:15;;;;;;;1.58;1.48;;;23.60;58.80;;;;;;5136137;27;20658;-67
2023/07/19 11:53:40;;;;;;;1.50;1.40;;;23.60;59.60;;;;;;5136093;27;20180;-67
2023/07/19 11:56:06;;;;;;;1.35;1.25;;;23.60;58.80;;;;;;5136127;27;20723;-67
2023/07/19 11:58:33;;;;;;;1.63;1.38;;;23.50;59.00;;;;;;5136512;27;20172;-67
2023/07/19 12:01:00;;;;;;;1.00;1.00;;;23.40;59.20;;;;;;5135143;27;20177;-68
2023/07/19 12:03:28;;;;;;;1.20;1.10;;;23.40;59.40;;;;;;5136301;27;20676;-69
2023/07/19 12:05:54;;;;;;;1.17;1.10;;;23.40;59.40;;;;;;5136342;27;20168;-68
2023/07/19 12:08:20;;;;;;;1.83;1.55;;;23.40;59.30;;;;;;5135139;27;20223;-68
2023/07/19 12:10:45;;;;;;;1.48;1.38;;;23.50;59.20;;;;;;5136129;27;20615;-68
2023/07/19 12:13:11;;;;;;;1.42;1.33;;;23.50;59.20;;;;;;5135807;27;20277;-67
2023/07/19 12:15:36;;;;;;;1.52;1.42;;;23.50;59.20;;;;;;5135404;27;20172;-67
2023/07/19 12:18:02;;;;;;;1.58;1.48;;;23.40;59.30;;;;;;5135861;27;20558;-67
2023/07/19 12:20:29;;;;;;;1.73;1.58;;;23.40;59.40;;;;;;5135926;27;20176;-67
2023/07/19 12:22:55;;;;;;;1.50;1.40;;;23.30;59.50;;;;;;5135270;27;20175;-67
2023/07/19 12:25:21;;;;;;;1.77;1.27;;;23.20;59.60;;;;;;5135692;27;20275;-67
2023/07/19 12:27:52;;;;;;;1.77;1.50;;;23.20;59.80;;;;;;5134633;27;20302;-67
2023/07/19 12:30:17;;;;;;;2.35;1.25;;;23.20;59.80;;;;;;5135036;27;20199;-68
2023/07/19 12:32:43;;;;;;;1.38;1.27;;;23.10;59.90;;;;;;5135975;27;20642;-68
2023/07/19 12:35:09;;;;;;;1.65;1.55;;;23.10;59.90;;;;;;5135249;27;20173;-69
2023/07/19 12:37:34;;;;;;;1.52;1.42;;;23.10;59.90;;;;;;5134763;27;20172;-68
2023/07/19 12:40:00;;;;;;;1.85;1.55;;;23.10;60.00;;;;;;5135143;27;20228;-68
2023/07/19 12:42:27;;;;;;;1.77;1.48;;;23.10;60.80;;;;;;5135793;27;20528;-68